Bookmark and Share
Track history (hours):
 

Pure Adrenalin

Last reported at 2014-Apr-17 18:28 UTC. Time now 2014-Apr-17 18:43 UTC.
Position S 12°28' E 130°51'.

Length 21 m.

Type: Ship. MMSI: 503642100.

NotesDate/timePositionNaut miles runAvg speedWind from/ knotsBaromVisibWave heightAir tempDewpointWater temp
2014-Apr-17 18:28S 12°28' E 130°51'0 0.0
2014-Apr-17 17:25S 12°28' E 130°51'0 0.0
2014-Apr-17 16:31S 12°28' E 130°51'0 0.0
2014-Apr-17 15:25S 12°28' E 130°51'0 0.0
2014-Apr-17 14:31S 12°28' E 130°51'0 0.0
2014-Apr-17 06:31S 12°28' E 130°51'0 0.0
2014-Apr-17 05:31S 12°28' E 130°51'0 0.0
2014-Apr-17 04:25S 12°28' E 130°51'0 0.0
2014-Apr-17 03:31S 12°28' E 130°51'0 0.0
2014-Apr-17 02:31S 12°28' E 130°51'4 4.0
2014-Apr-17 01:33S 12°31' E 130°54'0 0.1
2014-Apr-17 00:33S 12°30' E 130°54'0 0.2
2014-Apr-16 23:33S 12°30' E 130°54'0 0.2
2014-Apr-16 22:31S 12°30' E 130°54'1 1.3
2014-Apr-16 21:33S 12°29' E 130°55'2 2.4
2014-Apr-16 20:33S 12°29' E 130°52'2 1.7
2014-Apr-16 19:31S 12°28' E 130°51'0 0.0
2014-Apr-16 18:28S 12°28' E 130°51'0 0.0
2014-Apr-16 17:31S 12°28' E 130°51'0 0.0
2014-Apr-16 16:28S 12°28' E 130°51'0 0.0
2014-Apr-16 15:25S 12°28' E 130°51'0 0.0
2014-Apr-16 14:31S 12°28' E 130°51'0 0.0
2014-Apr-16 13:28S 12°28' E 130°51'0 0.0
2014-Apr-16 11:28S 12°28' E 130°51'0 0.0
2014-Apr-16 10:16S 12°28' E 130°51'0 0.0
2014-Apr-16 05:28S 12°28' E 130°51'0 0.0
2014-Apr-16 04:25S 12°28' E 130°51'0 0.0
2014-Apr-16 03:31S 12°28' E 130°51'5 4.7
2014-Apr-16 02:32S 12°30' E 130°55'1 0.8
2014-Apr-16 01:33S 12°31' E 130°54'0 0.2
2014-Apr-16 00:33S 12°30' E 130°54'0 0.3
2014-Apr-15 23:33S 12°30' E 130°55'1 0.7
2014-Apr-15 22:33S 12°30' E 130°54'3 2.9
2014-Apr-15 21:34S 12°29' E 130°51'1 0.4
2014-Apr-15 19:29S 12°28' E 130°51'0 0.0
2014-Apr-15 18:11S 12°28' E 130°51'0 0.0
2014-Apr-15 17:32S 12°28' E 130°51'0 0.0
2014-Apr-15 15:32S 12°28' E 130°51'0 0.0
2014-Apr-15 14:32S 12°28' E 130°51'0 0.0
2014-Apr-15 12:29S 12°28' E 130°51'0 0.0
2014-Apr-15 10:32S 12°28' E 130°51'0 0.0
2014-Apr-15 08:32S 12°28' E 130°51'0 0.0
2014-Apr-15 07:32S 12°28' E 130°51'4 2.0
2014-Apr-15 05:30S 12°30' E 130°54'0 0.2
2014-Apr-15 03:33S 12°31' E 130°55'0 0.1
2014-Apr-15 02:33S 12°30' E 130°55'1 0.5
2014-Apr-15 00:34S 12°30' E 130°54'1110.6
2014-Apr-14 23:34S 12°24' E 130°45'3 2.9
2014-Apr-14 22:34S 12°22' E 130°44'0 0.1
2014-Apr-14 21:34S 12°21' E 130°44'10 3.2
2014-Apr-14 18:31S 12°28' E 130°51'0 0.0
2014-Apr-14 17:31S 12°28' E 130°51'0 0.0
2014-Apr-14 15:31S 12°28' E 130°51'0 0.0
2014-Apr-14 11:31S 12°28' E 130°51'0 0.0
2014-Apr-14 09:31S 12°28' E 130°51'0 0.0
2014-Apr-14 08:31S 12°28' E 130°51'5 2.4
2014-Apr-14 06:33S 12°31' E 130°55'1 0.6
2014-Apr-14 05:33S 12°31' E 130°54'0 0.1
2014-Apr-13 22:33S 12°30' E 130°54'4 3.9
2014-Apr-13 21:30S 12°28' E 130°51'0 0.0
2014-Apr-13 19:12S 12°28' E 130°51'0 0.0
2014-Apr-13 18:30S 12°28' E 130°51'0 0.0
2014-Apr-13 17:33S 12°28' E 130°51'0 0.0
2014-Apr-13 16:24S 12°28' E 130°51'0 0.0
2014-Apr-13 15:33S 12°28' E 130°51'0 0.0
2014-Apr-13 14:30S 12°28' E 130°51'0 0.0
2014-Apr-13 13:21S 12°28' E 130°51'0 0.0
2014-Apr-13 12:33S 12°28' E 130°51'0 0.0
2014-Apr-13 11:21S 12°28' E 130°51'0 0.0
2014-Apr-13 10:33S 12°28' E 130°51'0 0.0
2014-Apr-13 09:21S 12°28' E 130°51'0 0.0
2014-Apr-13 08:06S 12°28' E 130°51'1 2.5
2014-Apr-13 07:33S 12°29' E 130°52'3 2.6
2014-Apr-13 06:33S 12°30' E 130°54'0 0.4
2014-Apr-13 05:34S 12°30' E 130°55'0 0.2
2014-Apr-13 04:33S 12°31' E 130°54'0 0.4
2014-Apr-13 03:34S 12°30' E 130°55'1 1.4
2014-Apr-13 02:33S 12°30' E 130°53'1 0.5
2014-Apr-13 01:27S 12°30' E 130°54'5 5.4
2014-Apr-13 00:33S 12°28' E 130°49'10 9.5
2014-Apr-12 23:33S 12°21' E 130°43'7 7.1
2014-Apr-12 22:33S 12°27' E 130°48'3 2.9
2014-Apr-12 21:29S 12°28' E 130°51'1 0.8
2014-Apr-12 20:31S 12°28' E 130°51'0 0.0
2014-Apr-12 19:25S 12°28' E 130°51'0 0.0
2014-Apr-12 18:25S 12°28' E 130°51'0 0.0
2014-Apr-12 17:28S 12°28' E 130°51'0 0.0
2014-Apr-12 16:31S 12°28' E 130°51'0 0.0
2014-Apr-12 15:28S 12°28' E 130°51'0 0.0
2014-Apr-12 14:31S 12°28' E 130°51'0 0.0
2014-Apr-12 13:28S 12°28' E 130°51'0 0.0
2014-Apr-12 12:31S 12°28' E 130°51'0 0.0
2014-Apr-12 11:31S 12°28' E 130°51'0 0.0
2014-Apr-12 10:28S 12°28' E 130°51'0 0.0
2014-Apr-12 09:25S 12°28' E 130°51'0 0.0
2014-Apr-12 08:07S 12°28' E 130°51'0 0.0
2014-Apr-12 07:31S 12°28' E 130°51'4 4.1
2014-Apr-12 06:33S 12°31' E 130°54'1 0.5
2014-Apr-12 05:33S 12°30' E 130°53'1 0.8
2014-Apr-12 04:33S 12°30' E 130°54'0 0.3
2014-Apr-12 03:33S 12°30' E 130°54'0 0.1
2014-Apr-12 02:33S 12°30' E 130°54'0 0.5
2014-Apr-12 01:33S 12°31' E 130°54'0 0.3
2014-Apr-12 00:33S 12°30' E 130°54'0 0.2
2014-Apr-11 23:33S 12°30' E 130°54'2 1.6
2014-Apr-11 22:33S 12°30' E 130°53'2 2.2
2014-Apr-11 21:27S 12°28' E 130°51'0 0.0
2014-Apr-11 20:31S 12°28' E 130°51'0 0.0
2014-Apr-11 19:31S 12°28' E 130°51'0 0.0
2014-Apr-11 15:25S 12°28' E 130°51'0 0.0
2014-Apr-11 14:28S 12°28' E 130°51'0 0.0
2014-Apr-11 13:31S 12°28' E 130°51'0 0.0
2014-Apr-11 12:31S 12°28' E 130°51'0 0.0
2014-Apr-11 11:31S 12°28' E 130°51'0 0.0
2014-Apr-11 10:31S 12°28' E 130°51'0 0.0
2014-Apr-11 09:31S 12°28' E 130°51'0 0.0
2014-Apr-11 08:31S 12°28' E 130°51'0 0.0
2014-Apr-11 07:31S 12°28' E 130°51'4 4.1
2014-Apr-11 06:33S 12°30' E 130°54'0 0.5
2014-Apr-11 05:33S 12°30' E 130°54'1 0.7
2014-Apr-11 04:33S 12°30' E 130°54'0 0.2
2014-Apr-11 03:32S 12°30' E 130°54'4 3.9
2014-Apr-11 02:33S 12°28' E 130°51'10 2.3
2014-Apr-10 22:27S 12°20' E 130°47'10 2.2
2014-Apr-10 18:04S 12°28' E 130°51'0 0.0
2014-Apr-10 17:22S 12°28' E 130°51'0 0.0
2014-Apr-10 16:16S 12°28' E 130°51'0 0.0
2014-Apr-10 15:22S 12°28' E 130°51'0 0.0
2014-Apr-10 14:28S 12°28' E 130°51'0 0.0
2014-Apr-10 13:28S 12°28' E 130°51'0 0.0
2014-Apr-10 12:28S 12°28' E 130°51'0 0.0
2014-Apr-10 11:22S 12°28' E 130°51'0 0.0
2014-Apr-10 10:28S 12°28' E 130°51'0 0.0
2014-Apr-10 09:28S 12°28' E 130°51'3 1.6
2014-Apr-10 07:33S 12°30' E 130°53'1 0.7
2014-Apr-10 06:33S 12°30' E 130°54'0 0.3
2014-Apr-10 05:33S 12°30' E 130°54'1 0.6
2014-Apr-10 04:33S 12°30' E 130°53'1 0.6
2014-Apr-10 03:33S 12°31' E 130°54'1 1.2
2014-Apr-10 02:33S 12°30' E 130°53'1 1.4
2014-Apr-10 01:33S 12°31' E 130°54'0 0.5
2014-Apr-10 00:33S 12°30' E 130°54'1 0.6
2014-Apr-09 23:33S 12°30' E 130°55'1 1.0
2014-Apr-09 22:33S 12°30' E 130°54'4 3.7
2014-Apr-09 21:32S 12°28' E 130°51'0 0.0
2014-Apr-09 20:29S 12°28' E 130°51'0 0.0
2014-Apr-09 19:32S 12°28' E 130°51'0 0.0
2014-Apr-09 18:29S 12°28' E 130°51'0 0.0
2014-Apr-09 17:33S 12°28' E 130°51'0 0.0
2014-Apr-09 16:27S 12°28' E 130°51'0 0.0
2014-Apr-09 15:14S 12°28' E 130°51'0 0.0
2014-Apr-09 14:29S 12°28' E 130°51'0 0.0
2014-Apr-09 13:26S 12°28' E 130°51'0 0.0
2014-Apr-09 12:23S 12°28' E 130°51'0 0.0
2014-Apr-09 11:29S 12°28' E 130°51'0 0.0
2014-Apr-09 10:32S 12°28' E 130°51'0 0.0
2014-Apr-09 09:29S 12°28' E 130°51'0 0.0
2014-Apr-09 07:17S 12°28' E 130°51'0 0.0
2014-Apr-09 05:29S 12°28' E 130°51'2 2.3
2014-Apr-09 04:33S 12°30' E 130°52'0 0.1
2014-Apr-09 03:33S 12°30' E 130°53'0 0.3
2014-Apr-09 02:33S 12°29' E 130°52'0 0.2
2014-Apr-09 01:31S 12°29' E 130°52'3 2.6
2014-Apr-09 00:32S 12°30' E 130°54'1 1.2
2014-Apr-08 23:28S 12°30' E 130°53'0 0.4
2014-Apr-08 22:31S 12°30' E 130°54'3 3.2
2014-Apr-08 21:27S 12°28' E 130°51'0 0.0
2014-Apr-08 20:33S 12°28' E 130°51'0 0.0
2014-Apr-08 19:33S 12°28' E 130°51'0 0.0
2014-Apr-08 18:24S 12°28' E 130°51'0 0.0
2014-Apr-08 17:12S 12°28' E 130°51'0 0.0
2014-Apr-08 16:33S 12°28' E 130°51'0 0.0
2014-Apr-08 15:33S 12°28' E 130°51'0 0.0
2014-Apr-08 14:30S 12°28' E 130°51'0 0.0
2014-Apr-08 13:24S 12°28' E 130°51'0 0.0
2014-Apr-08 12:30S 12°28' E 130°51'0 0.0
2014-Apr-08 11:30S 12°28' E 130°51'0 0.0
2014-Apr-08 10:33S 12°28' E 130°51'0 0.0
2014-Apr-08 09:30S 12°28' E 130°51'0 0.0
2014-Apr-08 08:33S 12°28' E 130°51'0 0.0
2014-Apr-08 07:30S 12°28' E 130°51'0 0.0
2014-Apr-08 06:30S 12°28' E 130°51'0 0.0
2014-Apr-08 05:30S 12°28' E 130°51'4 4.5
2014-Apr-08 04:33S 12°30' E 130°55'0 0.3
2014-Apr-08 03:31S 12°30' E 130°54'1 0.7
2014-Apr-08 02:33S 12°30' E 130°54'1010.1
2014-Apr-08 01:33S 12°24' E 130°46'5 5.0
2014-Apr-08 00:33S 12°20' E 130°43'3 2.2
2014-Apr-07 23:13S 12°18' E 130°44'4 5.8
2014-Apr-07 22:33S 12°21' E 130°44'10 8.1
2014-Apr-07 21:20S 12°28' E 130°51'0 0.0
2014-Apr-07 20:32S 12°28' E 130°51'0 0.0
2014-Apr-07 19:26S 12°28' E 130°51'  

Dump ship's entire track history

sailing weather and tide predictions

Pure Adrenalin — VJD3680 — position and weather